Hovedside
METAR-TAF:

METAR-TAF

Lufthavner :

Florianópolis, Santa Catarina, Brasil

breddegrad: 27-40S, lengdegrad: 048-33W, høyde over havet: 5 m

Gjeldene værobservasjon

Denne rapporten ble laget for 1 time og 1 minutter siden, klokken 14:00 UTC
Vind 8 kt fra Nord
Temperatur 30°C
Luftfuktighet 62%
Trykk 1013 hPa
Sikt 10 km eller mer
Få skyer i en høyde av 3000 ft

METAR: SBFL 211400Z 01008KT 9999 FEW030 30/22 Q1013

Tid: 13:01 (15:01 UTC)

Varsel

Denne rapporten ble laget for 6 timer og 16 minutter siden, klokken 08:45 UTC
Varsel gyldig fra 21. klokken 12 UTC til 22. klokken 12 UTC
Vind 7 kt fra Nord
Sikt 10 km eller mer
Spredte skyer i en høyde av 3500 ft
Blir
fra 21. klokken 22 UTC til 21. klokken 24 UTC
Vind 6 kt fra Sør
Spredte skyer i en høyde av 2500 ft

TAF: SBFL 210845Z 2112/2212 36007KT 9999 SCT035 TX32/2118Z TN22/2208Z BECMG 2122/2124 18006KT SCT025 RMK PEB

Værobservasjoner og værvarsel for over 4000 flyplasser (METAR- og TAF-rapporter).

Tilgjengelige stasjoner er representert av de røde og gule prikkene på kartet.

Hold musepekeren over prikken for å se navnet på stasjonen.

Klikk så for å se værobservasjoner og -varsler.

For å forandre kartet kan du klikke på den grønne knappen med svart kryss for å zoome inn, på den grønne knappen med strek for å zoome ut, eller på de grønne pilene for å se tilstøtende kart.


METAR-TAF: